createdAt,value
2017-12-17T00:00:22.219Z,24.00
2017-12-17T00:01:22.190Z,24.10
2017-12-17T00:02:22.170Z,25.10
2017-12-17T00:03:22.151Z,24.70
2017-12-17T00:04:22.129Z,25.00
2017-12-17T00:05:22.097Z,26.50
2017-12-17T00:06:22.078Z,23.80
2017-12-17T00:07:22.069Z,23.90
2017-12-17T00:08:22.036Z,22.70
2017-12-17T00:09:22.008Z,23.90
2017-12-17T00:10:22.001Z,24.60
2017-12-17T00:11:21.971Z,23.00
2017-12-17T00:12:21.950Z,25.10
2017-12-17T00:13:21.918Z,24.60
2017-12-17T00:14:21.899Z,27.50
2017-12-17T00:15:21.874Z,26.30
2017-12-17T00:16:21.848Z,26.10
2017-12-17T00:17:21.840Z,25.20
2017-12-17T00:18:21.804Z,24.80
2017-12-17T00:19:21.783Z,25.40
2017-12-17T00:20:21.767Z,26.50
2017-12-17T00:21:21.735Z,25.50
2017-12-17T00:22:21.722Z,26.40
2017-12-17T00:23:21.693Z,26.80
2017-12-17T00:24:21.669Z,27.40
2017-12-17T00:25:21.644Z,27.30
2017-12-17T00:26:21.622Z,27.20
2017-12-17T00:27:21.606Z,24.40
2017-12-17T00:28:21.577Z,26.70
2017-12-17T00:29:21.554Z,24.70
2017-12-17T00:30:21.535Z,25.60
2017-12-17T00:31:21.509Z,23.90
2017-12-17T00:32:21.486Z,24.00
2017-12-17T00:33:21.461Z,24.80
2017-12-17T00:34:21.445Z,24.30
2017-12-17T00:35:21.419Z,24.00
2017-12-17T00:36:21.407Z,24.30
2017-12-17T00:37:21.374Z,23.30
2017-12-17T00:38:21.348Z,24.00
2017-12-17T00:39:21.330Z,25.80
2017-12-17T00:40:21.303Z,25.30
2017-12-17T00:41:21.289Z,26.20
2017-12-17T00:42:21.262Z,24.50
2017-12-17T00:43:21.242Z,25.70
2017-12-17T00:44:21.216Z,25.90
2017-12-17T00:45:21.209Z,25.80
2017-12-17T00:46:21.171Z,25.90
2017-12-17T00:47:21.157Z,24.40
2017-12-17T00:48:21.133Z,24.90
2017-12-17T00:49:21.107Z,23.00
2017-12-17T00:50:21.080Z,24.00
2017-12-17T00:51:21.063Z,25.20
2017-12-17T00:52:21.060Z,25.80
2017-12-17T00:53:21.011Z,25.70
2017-12-17T00:54:20.989Z,26.00
2017-12-17T00:55:20.966Z,26.70
2017-12-17T00:56:20.948Z,23.30
2017-12-17T00:57:20.917Z,25.20
2017-12-17T00:58:20.905Z,23.00
2017-12-17T00:59:20.876Z,25.00
2017-12-17T01:00:20.856Z,24.70
2017-12-17T01:01:20.827Z,25.10
2017-12-17T01:02:20.811Z,25.20
2017-12-17T01:03:20.789Z,25.60
2017-12-17T01:04:20.763Z,22.40
2017-12-17T01:05:20.742Z,23.30
2017-12-17T01:06:20.714Z,23.60
2017-12-17T01:07:20.692Z,22.60
2017-12-17T01:08:20.670Z,23.90
2017-12-17T01:09:20.646Z,23.30
2017-12-17T01:10:20.626Z,23.20
2017-12-17T01:11:20.602Z,24.20
2017-12-17T01:12:20.578Z,22.60
2017-12-17T01:13:20.557Z,22.40
2017-12-17T01:14:20.542Z,23.30
2017-12-17T01:15:20.512Z,22.70
2017-12-17T01:16:20.492Z,24.60
2017-12-17T01:17:20.468Z,22.80
2017-12-17T01:18:20.450Z,21.60
2017-12-17T01:19:20.428Z,23.20
2017-12-17T01:20:20.398Z,20.80
2017-12-17T01:21:20.377Z,22.30
2017-12-17T01:22:20.352Z,20.20
2017-12-17T01:23:20.342Z,19.70
2017-12-17T01:24:20.308Z,20.40
2017-12-17T01:25:20.284Z,20.00
2017-12-17T01:26:20.267Z,20.80
2017-12-17T01:27:20.243Z,20.20
2017-12-17T01:28:20.215Z,20.00
2017-12-17T01:29:20.197Z,20.40
2017-12-17T01:30:20.177Z,21.30
2017-12-17T01:31:20.154Z,21.00
2017-12-17T01:32:20.129Z,22.20
2017-12-17T01:33:20.108Z,20.20
2017-12-17T01:34:20.082Z,21.90
2017-12-17T01:35:20.057Z,23.10
2017-12-17T01:36:20.038Z,20.90
2017-12-17T01:37:20.012Z,22.30
2017-12-17T01:38:19.997Z,23.40
2017-12-17T01:39:19.968Z,22.00
2017-12-17T01:40:19.948Z,22.20
2017-12-17T01:41:19.923Z,22.80
2017-12-17T01:42:19.907Z,23.20
2017-12-17T01:43:19.887Z,22.10
2017-12-17T01:44:19.856Z,21.80
2017-12-17T01:45:19.834Z,22.60
2017-12-17T01:46:19.813Z,23.70
2017-12-17T01:47:19.788Z,22.50
2017-12-17T01:48:19.766Z,22.70
2017-12-17T01:49:19.742Z,22.40
2017-12-17T01:50:19.725Z,23.10
2017-12-17T01:51:19.704Z,21.80
2017-12-17T01:52:19.677Z,23.30
2017-12-17T01:53:19.658Z,22.20
2017-12-17T01:54:19.632Z,23.40
2017-12-17T01:55:19.610Z,22.00
2017-12-17T01:56:19.593Z,22.70
2017-12-17T01:57:19.558Z,22.00
2017-12-17T01:58:19.539Z,22.90
2017-12-17T01:59:19.520Z,22.20
2017-12-17T02:00:19.495Z,22.20
2017-12-17T02:01:19.472Z,23.80
2017-12-17T02:02:19.451Z,23.10
2017-12-17T02:03:19.430Z,23.60
2017-12-17T02:04:19.411Z,24.00
2017-12-17T02:05:19.379Z,23.50
2017-12-17T02:06:19.358Z,22.60
2017-12-17T02:07:19.335Z,23.50
2017-12-17T02:08:19.313Z,22.80
2017-12-17T02:09:19.286Z,23.30
2017-12-17T02:10:19.263Z,24.50
2017-12-17T02:11:19.249Z,22.30
2017-12-17T02:12:19.225Z,22.50
2017-12-17T02:13:19.201Z,23.20
2017-12-17T02:14:19.178Z,23.40
2017-12-17T02:15:19.154Z,24.30
2017-12-17T02:16:19.128Z,23.20
2017-12-17T02:17:19.108Z,25.30
2017-12-17T02:18:19.091Z,23.70
2017-12-17T02:19:19.066Z,27.20
2017-12-17T02:20:19.046Z,22.90
2017-12-17T02:21:19.022Z,22.50
2017-12-17T02:22:18.991Z,23.50
2017-12-17T02:23:18.973Z,22.90
2017-12-17T02:24:18.946Z,22.70
2017-12-17T02:25:18.922Z,21.80
2017-12-17T02:26:18.901Z,21.10
2017-12-17T02:27:18.879Z,23.50
2017-12-17T02:28:18.859Z,23.30
2017-12-17T02:29:18.836Z,21.60
2017-12-17T02:30:18.812Z,21.50
2017-12-17T02:31:18.790Z,22.60
2017-12-17T02:32:18.779Z,21.60
2017-12-17T02:33:18.741Z,23.50
2017-12-17T02:34:18.726Z,23.10
2017-12-17T02:35:18.699Z,23.20
2017-12-17T02:36:18.690Z,22.80
2017-12-17T02:37:18.654Z,22.30
2017-12-17T02:38:18.631Z,22.40
2017-12-17T02:39:18.607Z,23.50
2017-12-17T02:40:18.587Z,22.20
2017-12-17T02:41:18.569Z,22.20
2017-12-17T02:42:18.539Z,22.40
2017-12-17T02:43:18.530Z,23.10
2017-12-17T02:44:18.504Z,22.90
2017-12-17T02:45:18.472Z,23.80
2017-12-17T02:46:18.447Z,24.50
2017-12-17T02:47:18.425Z,24.50
2017-12-17T02:48:18.402Z,23.30
2017-12-17T02:49:18.380Z,24.30
2017-12-17T02:50:18.359Z,23.20
2017-12-17T02:51:18.335Z,21.90
2017-12-17T02:52:18.310Z,24.70
2017-12-17T02:53:18.300Z,23.70
2017-12-17T02:54:18.269Z,23.10
2017-12-17T02:55:18.247Z,23.60
2017-12-17T02:56:18.227Z,24.40
2017-12-17T02:57:18.199Z,23.60
2017-12-17T02:58:18.175Z,23.30
2017-12-17T02:59:18.153Z,25.30
2017-12-17T03:00:18.129Z,24.20
2017-12-17T03:01:18.108Z,24.50
2017-12-17T03:02:18.087Z,25.60
2017-12-17T03:03:18.059Z,27.60
2017-12-17T03:04:18.040Z,26.10
2017-12-17T03:05:18.018Z,26.80
2017-12-17T03:06:17.995Z,26.00
2017-12-17T03:07:17.971Z,27.00
2017-12-17T03:08:17.948Z,27.70
2017-12-17T03:09:17.927Z,26.50
2017-12-17T03:10:17.904Z,26.00
2017-12-17T03:11:17.877Z,27.20
2017-12-17T03:12:17.858Z,24.90
2017-12-17T03:13:17.837Z,24.10
2017-12-17T03:14:17.813Z,27.80
2017-12-17T03:15:17.788Z,25.60
2017-12-17T03:16:17.772Z,24.50
2017-12-17T03:17:17.742Z,27.40
2017-12-17T03:18:17.719Z,26.40
2017-12-17T03:19:17.699Z,27.70
2017-12-17T03:20:17.681Z,25.30
2017-12-17T03:21:17.652Z,29.60
2017-12-17T03:22:17.629Z,26.50
2017-12-17T03:23:17.622Z,29.80
2017-12-17T03:24:17.583Z,26.20
2017-12-17T03:25:17.558Z,27.90
2017-12-17T03:26:17.546Z,28.70
2017-12-17T03:27:17.522Z,27.20
2017-12-17T03:28:17.501Z,27.70
2017-12-17T03:29:17.466Z,27.60
2017-12-17T03:30:17.451Z,28.40
2017-12-17T03:31:17.425Z,27.60
2017-12-17T03:32:17.402Z,26.80
2017-12-17T03:33:17.380Z,26.90
2017-12-17T03:34:17.355Z,27.10
2017-12-17T03:35:17.338Z,26.40
2017-12-17T03:36:17.308Z,27.10
2017-12-17T03:37:17.286Z,27.60
2017-12-17T03:38:17.269Z,28.40
2017-12-17T03:39:17.242Z,29.00
2017-12-17T03:40:17.217Z,28.20
2017-12-17T03:41:17.198Z,28.10
2017-12-17T03:42:17.171Z,28.00
2017-12-17T03:43:17.146Z,30.00
2017-12-17T03:44:17.127Z,27.30
2017-12-17T03:45:17.105Z,31.90
2017-12-17T03:46:17.079Z,28.40
2017-12-17T03:47:17.059Z,28.20
2017-12-17T03:48:17.034Z,27.50
2017-12-17T03:49:17.009Z,29.10
2017-12-17T03:50:16.988Z,29.70
2017-12-17T03:51:16.964Z,29.60
2017-12-17T03:52:16.940Z,30.20
2017-12-17T03:53:16.919Z,29.70
2017-12-17T03:54:16.892Z,29.50
2017-12-17T03:55:16.877Z,29.10
2017-12-17T03:56:16.848Z,28.30
2017-12-17T03:57:16.826Z,32.10
2017-12-17T03:58:16.808Z,28.80
2017-12-17T03:59:16.784Z,29.30
2017-12-17T04:00:16.769Z,33.60
2017-12-17T04:01:16.733Z,32.70
2017-12-17T04:02:16.710Z,31.70
2017-12-17T04:03:16.686Z,30.70
2017-12-17T04:04:16.667Z,29.50
2017-12-17T04:05:16.641Z,36.10
2017-12-17T04:06:16.617Z,34.50
2017-12-17T04:07:16.600Z,31.90
2017-12-17T04:08:16.578Z,32.00
2017-12-17T04:09:16.548Z,29.60
2017-12-17T04:10:16.531Z,32.60
2017-12-17T04:11:16.507Z,31.10
2017-12-17T04:12:16.489Z,33.00
2017-12-17T04:13:16.460Z,32.70
2017-12-17T04:14:16.440Z,31.50
2017-12-17T04:15:16.414Z,32.10
2017-12-17T04:16:16.393Z,33.10
2017-12-17T04:17:16.369Z,31.50
2017-12-17T04:18:16.348Z,30.60
2017-12-17T04:19:16.322Z,32.20
2017-12-17T04:20:16.299Z,31.60
2017-12-17T04:21:16.286Z,31.70
2017-12-17T04:22:16.258Z,34.80
2017-12-17T04:23:16.236Z,30.70
2017-12-17T04:24:16.210Z,31.90
2017-12-17T04:25:16.188Z,35.80
2017-12-17T04:26:16.162Z,31.50
2017-12-17T04:27:16.139Z,34.70
2017-12-17T04:28:16.120Z,33.80
2017-12-17T04:29:16.095Z,29.90
2017-12-17T04:30:16.070Z,31.40
2017-12-17T04:31:16.044Z,30.20
2017-12-17T04:32:16.031Z,30.10
2017-12-17T04:33:15.998Z,32.20
2017-12-17T04:34:15.983Z,30.80
2017-12-17T04:35:15.958Z,29.00
2017-12-17T04:36:15.932Z,30.90
2017-12-17T04:37:15.906Z,30.10
2017-12-17T04:38:15.889Z,30.70
2017-12-17T04:39:15.862Z,32.30
2017-12-17T04:40:15.840Z,30.50
2017-12-17T04:41:15.813Z,32.30
2017-12-17T04:42:15.798Z,29.10
2017-12-17T04:43:15.773Z,27.60
2017-12-17T04:44:15.748Z,32.10
2017-12-17T04:45:15.729Z,29.70
2017-12-17T04:46:15.703Z,25.50
2017-12-17T04:47:15.677Z,27.10
2017-12-17T04:48:15.657Z,29.70
2017-12-17T04:49:15.637Z,28.40
2017-12-17T04:50:15.611Z,27.20
2017-12-17T04:51:15.592Z,27.20
2017-12-17T04:52:15.572Z,29.10
2017-12-17T04:53:15.538Z,27.30
2017-12-17T04:54:15.517Z,29.00
2017-12-17T04:55:15.492Z,27.10
2017-12-17T04:56:15.472Z,27.00
2017-12-17T04:57:15.451Z,29.00
2017-12-17T04:58:15.424Z,28.00
2017-12-17T04:59:15.402Z,30.30
2017-12-17T05:00:15.386Z,29.00
2017-12-17T05:01:15.357Z,28.60
2017-12-17T05:02:15.338Z,29.50
2017-12-17T05:03:15.314Z,30.30
2017-12-17T05:04:15.288Z,31.90
2017-12-17T05:05:15.262Z,30.30
2017-12-17T05:06:15.242Z,29.60
2017-12-17T05:07:15.223Z,29.50
2017-12-17T05:08:15.199Z,31.40
2017-12-17T05:09:15.178Z,29.70
2017-12-17T05:10:15.155Z,29.80
2017-12-17T05:11:15.129Z,31.60
2017-12-17T05:12:15.107Z,29.80
2017-12-17T05:13:15.086Z,31.40
2017-12-17T05:14:15.061Z,31.70
2017-12-17T05:15:15.038Z,29.80
2017-12-17T05:16:15.012Z,29.00
2017-12-17T05:17:14.991Z,28.70
2017-12-17T05:18:14.967Z,29.50
2017-12-17T05:19:14.948Z,28.60
2017-12-17T05:20:14.926Z,31.20
2017-12-17T05:21:14.900Z,29.90
2017-12-17T05:22:14.876Z,27.90
2017-12-17T05:23:14.857Z,27.50
2017-12-17T05:24:14.833Z,31.00
2017-12-17T05:25:14.808Z,31.50
2017-12-17T05:26:14.787Z,30.00
2017-12-17T05:27:14.766Z,29.40
2017-12-17T05:28:14.738Z,30.00
2017-12-17T05:29:14.724Z,30.50
2017-12-17T05:30:14.695Z,31.10
2017-12-17T05:31:14.671Z,29.40
2017-12-17T05:32:14.646Z,32.40
2017-12-17T05:33:14.622Z,30.00
2017-12-17T05:34:14.607Z,32.90
2017-12-17T05:35:14.584Z,33.00
2017-12-17T05:36:14.559Z,35.10
2017-12-17T05:37:14.536Z,31.60
2017-12-17T05:38:14.515Z,33.90
2017-12-17T05:39:14.494Z,31.30
2017-12-17T05:40:14.468Z,31.10
2017-12-17T05:41:14.497Z,30.30
2017-12-17T05:42:14.420Z,31.90
2017-12-17T05:43:14.401Z,30.80
2017-12-17T05:44:14.376Z,32.70
2017-12-17T05:45:14.349Z,30.80
2017-12-17T05:46:14.327Z,37.00
2017-12-17T05:47:14.312Z,32.50
2017-12-17T05:48:14.281Z,30.50
2017-12-17T05:49:14.270Z,32.30
2017-12-17T05:50:14.237Z,33.90
2017-12-17T05:51:14.213Z,30.90
2017-12-17T05:52:14.192Z,34.80
2017-12-17T05:53:14.167Z,31.40
2017-12-17T05:54:14.146Z,32.90
2017-12-17T05:55:14.126Z,31.90
2017-12-17T05:56:14.100Z,33.10
2017-12-17T05:57:14.075Z,32.80
2017-12-17T05:58:14.055Z,34.60
2017-12-17T05:59:14.031Z,34.10
2017-12-17T06:00:14.009Z,34.80
2017-12-17T06:01:13.984Z,34.90
2017-12-17T06:02:13.968Z,34.60
2017-12-17T06:03:13.937Z,34.40
2017-12-17T06:04:13.918Z,33.60
2017-12-17T06:05:13.894Z,33.90
2017-12-17T06:06:13.873Z,34.80
2017-12-17T06:07:13.851Z,32.70
2017-12-17T06:08:13.827Z,33.10
2017-12-17T06:09:13.808Z,33.10
2017-12-17T06:10:13.780Z,32.50
2017-12-17T06:11:13.764Z,36.30
2017-12-17T06:12:13.738Z,33.70
2017-12-17T06:13:13.709Z,34.30
2017-12-17T06:14:13.687Z,38.00
2017-12-17T06:15:13.665Z,33.80
2017-12-17T06:16:13.637Z,36.90
2017-12-17T06:17:13.619Z,33.80
2017-12-17T06:18:13.591Z,33.80
2017-12-17T06:19:13.578Z,34.70
2017-12-17T06:20:13.547Z,37.80
2017-12-17T06:21:13.532Z,34.20
2017-12-17T06:22:13.506Z,38.30
2017-12-17T06:23:13.483Z,32.20
2017-12-17T06:24:13.456Z,34.70
2017-12-17T06:25:13.434Z,33.10
2017-12-17T06:26:13.410Z,37.20
2017-12-17T06:27:13.389Z,32.90
2017-12-17T06:28:13.369Z,32.90
2017-12-17T06:29:13.341Z,32.80
2017-12-17T06:30:13.319Z,39.60
2017-12-17T06:31:13.295Z,32.20
2017-12-17T06:32:13.275Z,31.90
2017-12-17T06:33:13.269Z,34.00
2017-12-17T06:34:13.230Z,33.50
2017-12-17T06:35:13.206Z,32.40
2017-12-17T06:36:13.184Z,33.80
2017-12-17T06:37:13.155Z,32.60
2017-12-17T06:38:13.138Z,33.70
2017-12-17T06:39:13.109Z,33.40
2017-12-17T06:40:13.088Z,36.40
2017-12-17T06:41:13.065Z,34.50
2017-12-17T06:42:13.042Z,34.40
2017-12-17T06:43:13.019Z,35.50
2017-12-17T06:44:13.001Z,34.10
2017-12-17T06:45:12.975Z,35.40
2017-12-17T06:46:12.951Z,36.90
2017-12-17T06:47:12.926Z,35.40
2017-12-17T06:48:12.906Z,35.00
2017-12-17T06:49:12.887Z,35.90
2017-12-17T06:50:12.859Z,35.50
2017-12-17T06:51:12.834Z,34.40
2017-12-17T06:52:12.814Z,35.20
2017-12-17T06:53:12.788Z,36.30
2017-12-17T06:54:12.764Z,36.20
2017-12-17T06:55:12.762Z,36.20
2017-12-17T06:56:12.719Z,36.20
2017-12-17T06:57:12.695Z,33.30
2017-12-17T06:58:12.674Z,32.70
2017-12-17T06:59:12.649Z,37.20
2017-12-17T07:00:12.630Z,35.40
2017-12-17T07:01:12.607Z,38.10
2017-12-17T07:02:12.578Z,35.80
2017-12-17T07:03:12.560Z,36.70
2017-12-17T07:04:12.537Z,36.20
2017-12-17T07:05:12.512Z,41.00
2017-12-17T07:06:12.486Z,36.00
2017-12-17T07:07:12.468Z,41.40
2017-12-17T07:08:12.438Z,39.80
2017-12-17T07:09:12.418Z,37.60
2017-12-17T07:10:12.397Z,37.70
2017-12-17T07:11:12.369Z,39.60
2017-12-17T07:12:12.348Z,38.80
2017-12-17T07:13:12.326Z,38.60
2017-12-17T07:14:12.300Z,38.60
2017-12-17T07:15:12.278Z,38.00
2017-12-17T07:16:12.262Z,37.00
2017-12-17T07:17:12.229Z,40.30
2017-12-17T07:18:12.210Z,39.90
2017-12-17T07:19:12.198Z,39.60
2017-12-17T07:20:12.158Z,40.00
2017-12-17T07:21:12.138Z,41.00
2017-12-17T07:22:12.112Z,40.70
2017-12-17T07:23:12.099Z,40.80
2017-12-17T07:24:12.072Z,39.50
2017-12-17T07:25:12.045Z,41.30
2017-12-17T07:26:12.027Z,40.30
2017-12-17T07:27:12.002Z,41.90
2017-12-17T07:28:11.973Z,44.40
2017-12-17T07:29:11.949Z,40.50
2017-12-17T07:30:11.928Z,43.20
2017-12-17T07:31:11.901Z,45.00
2017-12-17T07:32:11.878Z,42.90
2017-12-17T07:33:11.858Z,42.60
2017-12-17T07:34:11.838Z,44.70
2017-12-17T07:35:11.809Z,44.00
2017-12-17T07:36:11.788Z,41.90
2017-12-17T07:37:11.763Z,43.00
2017-12-17T07:38:11.744Z,41.20
2017-12-17T07:39:11.718Z,42.10
2017-12-17T07:40:11.697Z,39.80
2017-12-17T07:41:11.675Z,40.10
2017-12-17T07:42:11.649Z,39.20
2017-12-17T07:43:11.628Z,43.30
2017-12-17T07:44:11.601Z,40.90
2017-12-17T07:45:11.579Z,42.50
2017-12-17T07:46:11.563Z,40.60
2017-12-17T07:47:11.531Z,40.50
2017-12-17T07:48:11.524Z,42.70
2017-12-17T07:49:11.490Z,40.10
2017-12-17T07:50:11.467Z,39.10
2017-12-17T07:51:11.442Z,39.50
2017-12-17T07:52:11.419Z,42.30
2017-12-17T07:53:11.394Z,44.90
2017-12-17T07:54:11.374Z,40.40
2017-12-17T07:55:11.349Z,40.90
2017-12-17T07:56:11.331Z,40.80
2017-12-17T07:57:11.298Z,44.20
2017-12-17T07:58:11.275Z,43.40
2017-12-17T07:59:11.254Z,43.00
2017-12-17T08:00:11.230Z,41.40
2017-12-17T08:01:11.213Z,43.30
2017-12-17T08:02:11.179Z,43.50
2017-12-17T08:03:11.159Z,41.70
2017-12-17T08:04:11.138Z,39.20
2017-12-17T08:05:11.115Z,39.80
2017-12-17T08:06:11.143Z,39.90
2017-12-17T08:07:11.069Z,42.70
2017-12-17T08:08:11.045Z,39.60
2017-12-17T08:09:11.023Z,43.60
2017-12-17T08:10:11.005Z,43.30
2017-12-17T08:11:10.973Z,42.40
2017-12-17T08:12:10.962Z,43.60
2017-12-17T08:13:10.932Z,37.70
2017-12-17T08:14:10.906Z,43.40
2017-12-17T08:15:10.879Z,42.80
2017-12-17T08:16:10.857Z,45.20
2017-12-17T08:17:10.830Z,47.00
2017-12-17T08:18:10.806Z,42.70
2017-12-17T08:19:10.789Z,40.70
2017-12-17T08:20:10.768Z,43.50
2017-12-17T08:21:10.737Z,41.30
2017-12-17T08:22:10.721Z,42.70
2017-12-17T08:23:10.695Z,41.00
2017-12-17T08:24:10.676Z,46.70
2017-12-17T08:25:10.650Z,45.70
2017-12-17T08:26:10.629Z,42.30
2017-12-17T08:27:10.608Z,44.60
2017-12-17T08:28:10.577Z,53.60
2017-12-17T08:29:10.556Z,45.70
2017-12-17T08:30:10.539Z,45.10
2017-12-17T08:31:10.509Z,47.80
2017-12-17T08:32:10.490Z,45.70
2017-12-17T08:33:10.468Z,40.10
2017-12-17T08:34:10.439Z,42.20
2017-12-17T08:35:10.419Z,45.40
2017-12-17T08:36:10.395Z,40.60
2017-12-17T08:37:10.387Z,41.00
2017-12-17T08:38:10.349Z,43.00
2017-12-17T08:39:10.325Z,40.70
2017-12-17T08:40:10.300Z,43.70
2017-12-17T08:41:10.289Z,39.50
2017-12-17T08:42:10.257Z,48.00
2017-12-17T08:43:10.238Z,41.80
2017-12-17T08:44:10.211Z,40.30
2017-12-17T08:45:10.190Z,41.50
2017-12-17T08:46:10.170Z,44.30
2017-12-17T08:47:10.142Z,39.10
2017-12-17T08:48:10.116Z,41.10
2017-12-17T08:49:10.092Z,42.50
2017-12-17T08:50:10.068Z,37.30
2017-12-17T08:51:10.050Z,41.70
2017-12-17T08:52:10.025Z,41.30
2017-12-17T08:53:09.997Z,40.00
2017-12-17T08:54:09.983Z,40.60
2017-12-17T08:55:09.951Z,39.10
2017-12-17T08:56:09.940Z,42.00
2017-12-17T08:57:09.908Z,40.40
2017-12-17T08:58:09.888Z,41.30
2017-12-17T08:59:09.864Z,39.90
2017-12-17T09:00:09.843Z,44.30
2017-12-17T09:01:09.818Z,38.00
2017-12-17T09:02:09.790Z,40.40
2017-12-17T09:03:09.768Z,37.30
2017-12-17T09:04:09.744Z,36.70
2017-12-17T09:05:09.719Z,38.90
2017-12-17T09:06:09.698Z,37.60
2017-12-17T09:07:09.672Z,41.00
2017-12-17T09:08:09.654Z,34.70
2017-12-17T09:09:09.629Z,34.90
2017-12-17T09:10:09.613Z,34.30
2017-12-17T09:11:09.582Z,36.80
2017-12-17T09:12:09.628Z,38.80
2017-12-17T09:14:09.539Z,35.70
2017-12-17T09:15:09.490Z,40.60
2017-12-17T09:16:09.498Z,37.60
2017-12-17T09:17:09.445Z,38.50
2017-12-17T09:18:09.481Z,39.30
2017-12-17T09:19:09.402Z,34.60
2017-12-17T09:20:09.378Z,35.20
2017-12-17T09:21:09.357Z,35.90
2017-12-17T09:22:09.340Z,35.10
2017-12-17T09:23:09.308Z,35.50
2017-12-17T09:24:09.287Z,38.10
2017-12-17T09:25:09.260Z,38.00
2017-12-17T09:26:09.235Z,36.50
2017-12-17T09:27:09.221Z,35.10
2017-12-17T09:28:09.196Z,35.80
2017-12-17T09:29:09.165Z,38.80
2017-12-17T09:30:09.142Z,35.80
2017-12-17T09:31:09.142Z,33.80
2017-12-17T09:32:09.100Z,37.10
2017-12-17T09:33:09.070Z,36.80
2017-12-17T09:34:09.089Z,34.50
2017-12-17T09:35:09.024Z,35.00
2017-12-17T09:36:09.005Z,35.80
2017-12-17T09:37:08.978Z,38.20
2017-12-17T09:38:08.951Z,36.20
2017-12-17T09:39:08.931Z,41.20
2017-12-17T09:40:08.908Z,36.90
2017-12-17T09:41:08.896Z,36.40
2017-12-17T09:42:08.880Z,37.30
2017-12-17T09:43:08.839Z,37.10
2017-12-17T09:44:08.823Z,36.40
2017-12-17T09:45:08.835Z,32.60
2017-12-17T09:46:08.819Z,34.60
2017-12-17T09:47:08.773Z,34.10
2017-12-17T09:48:08.827Z,37.00
2017-12-17T09:49:08.757Z,34.60
2017-12-17T09:50:08.682Z,40.40
2017-12-17T09:51:08.675Z,35.60
2017-12-17T09:52:08.687Z,36.70
2017-12-17T09:53:08.643Z,35.50
2017-12-17T09:54:08.650Z,32.70
2017-12-17T09:55:08.612Z,33.10
2017-12-17T09:56:08.590Z,33.80
2017-12-17T09:57:08.520Z,32.90
2017-12-17T09:58:08.492Z,34.60
2017-12-17T09:59:08.474Z,35.60
2017-12-17T10:00:08.452Z,37.80
2017-12-17T10:01:08.426Z,33.50
2017-12-17T10:02:08.400Z,33.50
2017-12-17T10:03:08.373Z,32.40
2017-12-17T10:04:08.366Z,31.90
2017-12-17T10:05:08.328Z,33.20
2017-12-17T10:06:08.308Z,35.80
2017-12-17T10:07:08.284Z,37.80
2017-12-17T10:08:08.259Z,33.60
2017-12-17T10:09:08.288Z,32.70
2017-12-17T10:10:08.213Z,33.60
2017-12-17T10:11:08.194Z,35.70
2017-12-17T10:12:08.168Z,34.90
2017-12-17T10:13:08.151Z,35.20
2017-12-17T10:14:08.125Z,39.50
2017-12-17T10:15:08.099Z,35.20
2017-12-17T10:16:08.082Z,40.90
2017-12-17T10:17:08.057Z,35.90
2017-12-17T10:18:08.032Z,34.40
2017-12-17T10:19:08.012Z,35.40
2017-12-17T10:20:07.983Z,31.00
2017-12-17T10:21:07.968Z,33.30
2017-12-17T10:22:07.940Z,34.40
2017-12-17T10:23:07.923Z,33.50
2017-12-17T10:24:07.890Z,33.70
2017-12-17T10:25:07.870Z,34.70
2017-12-17T10:27:07.829Z,30.60
2017-12-17T10:28:07.800Z,32.20
2017-12-17T10:29:07.778Z,31.50
2017-12-17T10:30:07.757Z,30.70
2017-12-17T10:31:07.732Z,29.20
2017-12-17T10:32:07.708Z,29.40
2017-12-17T10:33:07.688Z,32.30
2017-12-17T10:34:07.668Z,35.90
2017-12-17T10:35:07.634Z,29.90
2017-12-17T10:36:07.617Z,28.70
2017-12-17T10:37:07.592Z,29.90
2017-12-17T10:38:07.569Z,32.10
2017-12-17T10:39:07.548Z,30.10
2017-12-17T10:40:07.519Z,32.10
2017-12-17T10:41:07.508Z,33.90
2017-12-17T10:42:07.486Z,31.60
2017-12-17T10:43:07.452Z,30.80
2017-12-17T10:44:07.430Z,29.90
2017-12-17T10:45:07.415Z,29.80
2017-12-17T10:46:07.393Z,29.40
2017-12-17T10:47:07.366Z,29.80
2017-12-17T10:48:07.345Z,30.50
2017-12-17T10:49:07.315Z,28.20
2017-12-17T10:50:07.294Z,30.70
2017-12-17T10:51:07.266Z,28.20
2017-12-17T10:52:07.248Z,28.10
2017-12-17T10:53:07.219Z,29.00
2017-12-17T10:54:07.201Z,27.50
2017-12-17T10:55:07.180Z,33.80
2017-12-17T10:56:07.149Z,30.60
2017-12-17T10:57:07.126Z,27.50
2017-12-17T10:58:07.110Z,29.60
2017-12-17T10:59:07.085Z,27.10
2017-12-17T11:00:07.058Z,27.30
2017-12-17T11:01:07.036Z,28.10
2017-12-17T11:02:07.016Z,28.30
2017-12-17T11:03:06.987Z,30.40
2017-12-17T11:04:06.974Z,26.00
2017-12-17T11:05:06.943Z,26.90
2017-12-17T11:06:06.919Z,25.90
2017-12-17T11:07:06.896Z,28.40
2017-12-17T11:08:06.874Z,29.90
2017-12-17T11:09:06.852Z,28.80
2017-12-17T11:10:06.833Z,26.20
2017-12-17T11:11:06.811Z,27.40
2017-12-17T11:12:06.795Z,29.30
2017-12-17T11:13:06.760Z,26.00
2017-12-17T11:14:06.737Z,27.10
2017-12-17T11:15:06.714Z,26.60
2017-12-17T11:16:06.693Z,26.30
2017-12-17T11:17:06.670Z,26.00
2017-12-17T11:18:06.660Z,26.00
2017-12-17T11:19:06.619Z,24.90
2017-12-17T11:20:06.600Z,25.30
2017-12-17T11:21:06.581Z,27.10
2017-12-17T11:22:06.555Z,24.70
2017-12-17T11:23:06.548Z,24.10
2017-12-17T11:24:06.508Z,22.30
2017-12-17T11:25:06.503Z,24.80
2017-12-17T11:26:06.459Z,22.90
2017-12-17T11:27:06.437Z,25.90
2017-12-17T11:28:06.416Z,23.40
2017-12-17T11:29:06.396Z,25.50
2017-12-17T11:30:06.367Z,27.90
2017-12-17T11:31:06.351Z,26.30
2017-12-17T11:32:06.324Z,26.30
2017-12-17T11:33:06.303Z,27.40
2017-12-17T11:34:06.279Z,28.30
2017-12-17T11:35:06.260Z,28.40
2017-12-17T11:36:06.237Z,25.30
2017-12-17T11:37:06.217Z,27.20
2017-12-17T11:38:06.196Z,27.20
2017-12-17T11:39:06.166Z,25.60
2017-12-17T11:40:06.147Z,27.20
2017-12-17T11:41:06.118Z,25.60
2017-12-17T11:42:06.093Z,25.90
2017-12-17T11:43:06.077Z,26.00
2017-12-17T11:44:06.057Z,26.90
2017-12-17T11:45:06.033Z,25.50
2017-12-17T11:46:06.014Z,26.50
2017-12-17T11:47:05.987Z,29.00
2017-12-17T11:48:05.967Z,26.50
2017-12-17T11:49:05.943Z,28.00
2017-12-17T11:50:05.919Z,30.40
2017-12-17T11:51:05.887Z,28.90
2017-12-17T11:52:05.866Z,25.00
2017-12-17T11:53:05.842Z,26.90
2017-12-17T11:54:05.822Z,25.30
2017-12-17T11:55:05.797Z,27.80
2017-12-17T11:56:05.775Z,30.90
2017-12-17T11:57:05.752Z,28.20
2017-12-17T11:58:05.727Z,27.10
2017-12-17T11:59:05.707Z,25.90
2017-12-17T12:00:05.691Z,28.00
2017-12-17T12:01:05.668Z,25.10
2017-12-17T12:02:05.641Z,26.60
2017-12-17T12:03:05.615Z,28.30
2017-12-17T12:04:05.598Z,26.00
2017-12-17T12:05:05.573Z,28.50
2017-12-17T12:06:05.555Z,28.70
2017-12-17T12:07:05.523Z,28.70
2017-12-17T12:08:05.501Z,27.30
2017-12-17T12:09:05.477Z,27.30
2017-12-17T12:10:05.459Z,28.70
2017-12-17T12:11:05.439Z,32.40
2017-12-17T12:12:05.420Z,28.40
2017-12-17T12:13:05.399Z,31.00
2017-12-17T12:14:05.367Z,29.20
2017-12-17T12:15:05.351Z,25.50
2017-12-17T12:16:05.328Z,23.60
2017-12-17T12:17:05.295Z,24.10
2017-12-17T12:18:05.273Z,22.50
2017-12-17T12:19:05.250Z,22.80
2017-12-17T12:20:05.240Z,24.00
2017-12-17T12:21:05.213Z,24.80
2017-12-17T12:22:05.181Z,24.60
2017-12-17T12:23:05.162Z,25.20
2017-12-17T12:24:05.138Z,24.50
2017-12-17T12:25:05.111Z,26.10
2017-12-17T12:26:05.093Z,24.30
2017-12-17T12:27:05.066Z,23.10
2017-12-17T12:28:05.045Z,25.70
2017-12-17T12:29:05.024Z,23.30
2017-12-17T12:30:05.001Z,24.60
2017-12-17T12:31:04.975Z,25.00
2017-12-17T12:32:04.951Z,24.30
2017-12-17T12:33:04.930Z,24.20
2017-12-17T12:34:04.913Z,26.40
2017-12-17T12:35:04.888Z,25.80
2017-12-17T12:36:04.864Z,24.00
2017-12-17T12:37:04.837Z,24.40
2017-12-17T12:38:04.816Z,24.30
2017-12-17T12:39:04.794Z,25.80
2017-12-17T12:40:04.768Z,25.10
2017-12-17T12:41:04.744Z,31.40
2017-12-17T12:42:04.732Z,24.80
2017-12-17T12:43:04.707Z,26.80
2017-12-17T12:44:04.680Z,23.30
2017-12-17T12:45:04.660Z,24.20
2017-12-17T12:46:04.636Z,23.60
2017-12-17T12:47:04.609Z,26.00
2017-12-17T12:48:04.592Z,21.10
2017-12-17T12:49:04.574Z,22.10
2017-12-17T12:50:04.547Z,21.20
2017-12-17T12:51:04.519Z,21.90
2017-12-17T12:52:04.502Z,20.70
2017-12-17T12:53:04.486Z,20.20
2017-12-17T12:54:04.453Z,22.10